Ewing, New Jersey
Current Conditions -  °F | °C
As of 1:53 PM on Tuesday 21 Oct 2014 (Local Time) from KTTN Reporting Station
Clear Clear  
Wind Chill: 67°   Ceiling: Unl
Heat Index: 67°   Visibility: 10mi
Dew Point: 49°   Wind: 0mph
Humidity: 52%   Direction: NA
Pressure: 29.81"   Gusts: NA
Location:  40.27°N, 74.8°W
Report Text: KTTN 211753Z 00000KT 10SM CLR 19/09 A2981 RMK AO2 SLP089 T01940094 10194 20100 58021
Loading
Personal Weather Stations






























Interactive Weather Map
Tropical Storm Tracking
New forecast layout! Learn more

10-Day Weather Forecast

Advertisements
Track Severe Weather on mobile